createdAt,value
2022-12-25T00:01:56.294Z,99203.00
2022-12-25T00:04:30.400Z,99195.00
2022-12-25T00:07:01.932Z,99198.00
2022-12-25T00:09:45.625Z,99186.00
2022-12-25T00:12:21.739Z,99191.00
2022-12-25T00:15:15.228Z,99191.00
2022-12-25T00:17:45.149Z,99194.00
2022-12-25T00:20:16.468Z,99203.00
2022-12-25T00:22:43.348Z,99194.00
2022-12-25T00:25:10.127Z,99204.00
2022-12-25T00:27:42.685Z,99186.00
2022-12-25T00:30:28.214Z,99201.00
2022-12-25T00:32:54.957Z,99203.00
2022-12-25T00:35:59.385Z,99200.00
2022-12-25T00:38:27.892Z,99196.00
2022-12-25T00:41:12.337Z,99200.00
2022-12-25T00:43:41.877Z,99198.00
2022-12-25T00:46:20.496Z,99193.00
2022-12-25T00:48:48.529Z,99197.00
2022-12-25T00:51:21.487Z,99193.00
2022-12-25T00:54:09.849Z,99194.00
2022-12-25T00:57:06.353Z,99180.00
2022-12-25T00:59:52.769Z,99181.00
2022-12-25T01:02:32.091Z,99176.00
2022-12-25T01:05:26.618Z,99183.00
2022-12-25T01:08:04.767Z,99181.00
2022-12-25T01:10:37.234Z,99185.00
2022-12-25T01:13:17.068Z,99181.00
2022-12-25T01:16:06.299Z,99195.00
2022-12-25T01:18:33.212Z,99178.00
2022-12-25T01:21:11.534Z,99202.00
2022-12-25T01:23:43.440Z,99203.00
2022-12-25T01:26:25.704Z,99196.00
2022-12-25T01:28:52.650Z,99201.00
2022-12-25T01:31:21.665Z,99198.00
2022-12-25T01:33:49.181Z,99192.00
2022-12-25T01:36:25.238Z,99178.00
2022-12-25T01:38:53.438Z,99184.00
2022-12-25T01:41:22.306Z,99193.00
2022-12-25T01:44:15.739Z,99180.00
2022-12-25T01:46:43.965Z,99179.00
2022-12-25T01:49:11.056Z,99178.00
2022-12-25T01:52:10.791Z,99167.00
2022-12-25T01:55:18.455Z,99175.00
2022-12-25T01:57:46.027Z,99181.00
2022-12-25T02:00:14.079Z,99180.00
2022-12-25T02:03:16.152Z,99170.00
2022-12-25T02:06:12.665Z,99175.00
2022-12-25T02:08:55.134Z,99160.00
2022-12-25T02:11:53.251Z,99167.00
2022-12-25T02:14:21.117Z,99166.00
2022-12-25T02:16:58.794Z,99166.00
2022-12-25T02:22:21.843Z,99160.00
2022-12-25T02:25:08.367Z,99160.00
2022-12-25T02:28:11.846Z,99159.00
2022-12-25T02:30:55.542Z,99155.00
2022-12-25T02:34:03.440Z,99159.00
2022-12-25T02:36:51.538Z,99158.00
2022-12-25T02:39:50.875Z,99157.00
2022-12-25T02:43:04.643Z,99161.00
2022-12-25T02:46:14.576Z,99154.00
2022-12-25T02:49:37.555Z,99152.00
2022-12-25T02:52:32.298Z,99138.00
2022-12-25T02:55:40.966Z,99138.00
2022-12-25T02:58:31.295Z,99130.00
2022-12-25T03:01:33.178Z,99134.00
2022-12-25T03:07:06.113Z,99122.00
2022-12-25T03:09:59.903Z,99131.00
2022-12-25T03:12:57.844Z,99133.00
2022-12-25T03:18:39.849Z,99129.00
2022-12-25T03:24:32.447Z,99147.00
2022-12-25T03:26:59.217Z,99131.00
2022-12-25T03:29:51.243Z,99136.00
2022-12-25T03:32:42.865Z,99124.00
2022-12-25T03:35:44.319Z,99121.00
2022-12-25T03:38:46.122Z,99100.00
2022-12-25T03:41:41.707Z,99091.00
2022-12-25T03:44:59.907Z,99092.00
2022-12-25T03:48:18.176Z,99081.00
2022-12-25T03:51:14.392Z,99072.00
2022-12-25T03:57:15.544Z,99086.00
2022-12-25T04:00:01.285Z,99084.00
2022-12-25T04:03:07.359Z,99079.00
2022-12-25T04:05:53.189Z,99082.00
2022-12-25T04:08:44.025Z,99078.00
2022-12-25T04:11:44.424Z,99086.00
2022-12-25T04:14:29.576Z,99088.00
2022-12-25T04:17:42.852Z,99090.00
2022-12-25T04:20:37.942Z,99077.00
2022-12-25T04:23:46.393Z,99079.00
2022-12-25T04:26:37.921Z,99087.00
2022-12-25T04:29:39.295Z,99089.00
2022-12-25T04:32:24.725Z,99087.00
2022-12-25T04:35:10.140Z,99087.00
2022-12-25T04:37:37.107Z,99083.00
2022-12-25T04:40:23.593Z,99078.00
2022-12-25T04:45:32.369Z,99074.00
2022-12-25T04:48:04.700Z,99082.00
2022-12-25T04:50:55.242Z,99076.00
2022-12-25T04:53:28.542Z,99062.00
2022-12-25T04:56:11.763Z,99059.00
2022-12-25T04:58:58.040Z,99052.00
2022-12-25T05:01:31.740Z,99053.00
2022-12-25T05:04:07.824Z,99043.00
2022-12-25T05:06:51.160Z,99040.00
2022-12-25T05:09:48.652Z,99056.00
2022-12-25T05:12:24.781Z,99055.00
2022-12-25T05:14:55.960Z,99047.00
2022-12-25T05:20:38.155Z,99030.00
2022-12-25T05:23:15.311Z,99025.00
2022-12-25T05:25:51.692Z,99034.00
2022-12-25T05:28:32.280Z,99028.00
2022-12-25T05:31:12.751Z,99032.00
2022-12-25T05:33:48.815Z,99027.00
2022-12-25T05:36:29.222Z,99011.00
2022-12-25T05:39:14.909Z,99019.00
2022-12-25T05:41:48.014Z,99000.00
2022-12-25T05:44:25.480Z,99006.00
2022-12-25T05:47:01.480Z,99001.00
2022-12-25T05:49:40.055Z,98997.00
2022-12-25T05:52:17.798Z,99021.00
2022-12-25T05:55:01.276Z,99024.00
2022-12-25T05:57:47.343Z,99012.00
2022-12-25T06:00:31.337Z,99009.00
2022-12-25T06:03:02.832Z,99011.00
2022-12-25T06:05:43.668Z,99015.00
2022-12-25T06:08:21.520Z,99013.00
2022-12-25T06:10:48.583Z,99010.00
2022-12-25T06:13:15.610Z,99009.00
2022-12-25T06:15:42.752Z,99026.00
2022-12-25T06:18:09.564Z,99010.00
2022-12-25T06:20:36.490Z,99008.00
2022-12-25T06:23:03.303Z,99002.00
2022-12-25T06:25:30.110Z,98995.00
2022-12-25T06:27:57.080Z,98987.00
2022-12-25T06:30:23.938Z,98979.00
2022-12-25T06:32:50.729Z,98966.00
2022-12-25T06:35:17.505Z,98968.00
2022-12-25T06:37:44.279Z,98976.00
2022-12-25T06:40:13.041Z,98993.00
2022-12-25T06:42:39.873Z,99010.00
2022-12-25T06:45:07.138Z,99027.00
2022-12-25T06:47:33.878Z,99027.00
2022-12-25T06:50:00.679Z,99030.00
2022-12-25T06:52:27.463Z,99037.00
2022-12-25T06:54:54.324Z,99033.00
2022-12-25T06:57:21.211Z,99027.00
2022-12-25T06:59:53.133Z,99018.00
2022-12-25T07:02:23.215Z,99012.00
2022-12-25T07:04:50.492Z,99006.00
2022-12-25T07:07:24.702Z,99024.00
2022-12-25T07:09:51.506Z,99016.00
2022-12-25T07:12:20.841Z,99000.00
2022-12-25T07:14:50.117Z,99004.00
2022-12-25T07:17:17.757Z,99007.00
2022-12-25T07:19:45.953Z,99002.00
2022-12-25T07:22:13.739Z,98986.00
2022-12-25T07:24:42.316Z,98986.00
2022-12-25T07:27:09.101Z,98987.00
2022-12-25T07:29:35.868Z,98986.00
2022-12-25T07:32:02.767Z,98984.00
2022-12-25T07:34:30.805Z,98995.00
2022-12-25T07:36:57.588Z,99000.00
2022-12-25T07:39:24.356Z,99008.00
2022-12-25T07:41:53.790Z,99008.00
2022-12-25T07:44:20.588Z,99002.00
2022-12-25T07:46:49.315Z,99015.00
2022-12-25T07:49:41.663Z,99008.00
2022-12-25T07:52:49.605Z,99010.00
2022-12-25T07:56:31.671Z,99020.00
2022-12-25T07:59:40.661Z,99011.00
2022-12-25T08:02:31.456Z,99025.00
2022-12-25T08:05:19.760Z,99022.00
2022-12-25T08:08:03.020Z,99039.00
2022-12-25T08:10:54.191Z,99040.00
2022-12-25T08:16:47.162Z,99021.00
2022-12-25T08:19:36.634Z,99015.00
2022-12-25T08:22:26.996Z,98994.00
2022-12-25T08:28:01.687Z,98988.00
2022-12-25T08:30:28.686Z,98997.00
2022-12-25T08:32:55.568Z,98997.00
2022-12-25T08:35:22.391Z,99004.00
2022-12-25T08:37:49.193Z,99002.00
2022-12-25T08:40:16.064Z,99003.00
2022-12-25T08:42:42.967Z,99001.00
2022-12-25T08:45:10.408Z,98999.00
2022-12-25T08:47:37.210Z,99005.00
2022-12-25T08:50:04.546Z,99014.00
2022-12-25T08:52:31.589Z,99011.00
2022-12-25T08:54:58.310Z,99023.00
2022-12-25T08:57:25.145Z,99016.00
2022-12-25T08:59:51.844Z,99026.00
2022-12-25T09:02:19.426Z,99032.00
2022-12-25T09:04:46.748Z,99026.00
2022-12-25T09:07:13.647Z,99029.00
2022-12-25T09:09:43.509Z,99033.00
2022-12-25T09:12:10.307Z,99024.00
2022-12-25T09:14:37.030Z,99026.00
2022-12-25T09:17:03.795Z,99027.00
2022-12-25T09:19:31.005Z,99031.00
2022-12-25T09:21:58.915Z,99030.00
2022-12-25T09:24:25.783Z,99022.00
2022-12-25T09:26:52.709Z,99024.00
2022-12-25T09:29:19.501Z,99016.00
2022-12-25T09:31:46.267Z,99016.00
2022-12-25T09:34:17.192Z,99005.00
2022-12-25T09:36:45.857Z,99003.00
2022-12-25T09:39:12.648Z,98995.00
2022-12-25T09:42:13.344Z,98993.00
2022-12-25T09:44:46.966Z,98977.00
2022-12-25T09:47:18.600Z,98981.00
2022-12-25T09:49:58.199Z,98983.00
2022-12-25T09:52:42.016Z,98970.00
2022-12-25T09:55:20.025Z,98968.00
2022-12-25T09:57:54.226Z,98973.00
2022-12-25T10:00:24.240Z,98958.00
2022-12-25T10:03:09.904Z,98972.00
2022-12-25T10:05:56.802Z,98975.00
2022-12-25T10:08:55.057Z,98979.00
2022-12-25T10:11:49.919Z,98979.00
2022-12-25T10:15:07.702Z,98961.00
2022-12-25T10:17:43.874Z,98963.00
2022-12-25T10:20:17.700Z,98963.00
2022-12-25T10:22:49.826Z,98954.00
2022-12-25T10:25:47.526Z,98960.00
2022-12-25T10:28:23.480Z,98956.00
2022-12-25T10:30:52.742Z,98959.00
2022-12-25T10:33:36.957Z,98949.00
2022-12-25T10:36:03.991Z,98954.00
2022-12-25T10:42:38.557Z,98963.00
2022-12-25T10:45:11.703Z,98954.00
2022-12-25T10:47:59.544Z,98959.00
2022-12-25T10:50:29.020Z,98950.00
2022-12-25T10:53:01.369Z,98950.00
2022-12-25T10:58:39.353Z,98946.00
2022-12-25T11:01:08.875Z,98959.00
2022-12-25T11:03:48.495Z,98943.00
2022-12-25T11:06:28.609Z,98937.00
2022-12-25T11:13:20.148Z,98925.00
2022-12-25T11:16:26.763Z,98914.00
2022-12-25T11:18:55.691Z,98896.00
2022-12-25T11:21:34.689Z,98894.00
2022-12-25T11:24:28.368Z,98883.00
2022-12-25T11:27:09.776Z,98879.00
2022-12-25T11:34:06.858Z,98853.00
2022-12-25T11:36:57.571Z,98848.00
2022-12-25T11:39:34.059Z,98850.00
2022-12-25T11:42:54.332Z,98852.00
2022-12-25T11:52:00.273Z,98857.00
2022-12-25T11:54:42.817Z,98856.00
2022-12-25T11:57:16.070Z,98856.00
2022-12-25T12:00:38.139Z,98851.00
2022-12-25T12:03:11.601Z,98848.00
2022-12-25T12:05:54.165Z,98854.00
2022-12-25T12:08:21.099Z,98851.00
2022-12-25T12:11:29.697Z,98863.00
2022-12-25T12:17:43.451Z,98860.00
2022-12-25T12:20:43.662Z,98841.00
2022-12-25T12:23:26.004Z,98829.00
2022-12-25T12:25:53.743Z,98846.00
2022-12-25T12:28:52.094Z,98841.00
2022-12-25T12:31:45.704Z,98844.00
2022-12-25T12:34:52.585Z,98817.00
2022-12-25T12:37:44.124Z,98816.00
2022-12-25T12:40:25.658Z,98797.00
2022-12-25T12:45:56.449Z,98819.00
2022-12-25T12:48:47.936Z,98811.00
2022-12-25T12:52:05.484Z,98810.00
2022-12-25T12:54:59.251Z,98823.00
2022-12-25T12:57:49.155Z,98825.00
2022-12-25T13:01:05.921Z,98824.00
2022-12-25T13:04:39.292Z,98830.00
2022-12-25T13:07:58.611Z,98841.00
2022-12-25T13:10:52.040Z,98832.00
2022-12-25T13:14:07.641Z,98839.00
2022-12-25T13:16:57.348Z,98845.00
2022-12-25T13:19:27.575Z,98839.00
2022-12-25T13:26:37.259Z,98821.00
2022-12-25T13:32:58.048Z,98812.00
2022-12-25T13:35:25.106Z,98809.00
2022-12-25T13:37:53.300Z,98814.00
2022-12-25T13:40:20.095Z,98818.00
2022-12-25T13:49:45.249Z,98824.00
2022-12-25T14:03:04.223Z,98827.00
2022-12-25T14:06:28.218Z,98822.00
2022-12-25T14:12:31.865Z,98841.00
2022-12-25T14:15:56.788Z,98829.00
2022-12-25T14:19:15.131Z,98831.00
2022-12-25T14:25:00.308Z,98837.00
2022-12-25T14:27:30.452Z,98829.00
2022-12-25T14:30:24.838Z,98822.00
2022-12-25T14:39:38.176Z,98841.00
2022-12-25T14:45:38.465Z,98867.00
2022-12-25T14:48:41.030Z,98850.00
2022-12-25T14:51:56.445Z,98837.00
2022-12-25T15:23:54.964Z,98866.00
2022-12-25T15:30:20.693Z,98875.00
2022-12-25T15:33:45.366Z,98884.00
2022-12-25T15:40:36.796Z,98885.00
2022-12-25T15:58:20.872Z,98902.00
2022-12-25T16:04:41.400Z,98891.00
2022-12-25T16:07:47.154Z,98896.00
2022-12-25T16:11:11.789Z,98908.00
2022-12-25T16:14:13.416Z,98915.00
2022-12-25T16:17:19.278Z,98924.00
2022-12-25T16:20:11.957Z,98933.00
2022-12-25T16:46:59.304Z,98926.00
2022-12-25T16:50:00.083Z,98939.00
2022-12-25T16:52:26.969Z,98937.00
2022-12-25T16:54:53.717Z,98921.00
2022-12-25T17:05:10.339Z,98940.00
2022-12-25T17:07:50.441Z,98944.00
2022-12-25T17:11:03.638Z,98949.00
2022-12-25T17:13:55.697Z,98957.00
2022-12-25T17:20:19.473Z,98955.00
2022-12-25T17:23:14.326Z,98950.00
2022-12-25T17:26:39.990Z,98948.00
2022-12-25T17:29:48.774Z,98953.00
2022-12-25T17:32:33.554Z,98957.00
2022-12-25T17:35:27.814Z,98939.00
2022-12-25T17:38:15.982Z,98953.00
2022-12-25T17:41:27.359Z,98953.00
2022-12-25T17:46:55.362Z,98947.00
2022-12-25T17:52:43.704Z,98949.00
2022-12-25T17:55:30.300Z,98953.00
2022-12-25T17:58:24.878Z,98950.00
2022-12-25T18:01:11.646Z,98955.00
2022-12-25T18:04:02.757Z,98956.00
2022-12-25T18:06:54.836Z,98959.00
2022-12-25T18:12:51.089Z,98968.00
2022-12-25T18:15:44.846Z,98960.00
2022-12-25T18:18:52.611Z,98961.00
2022-12-25T18:24:41.619Z,98963.00
2022-12-25T18:27:15.777Z,98965.00
2022-12-25T18:33:08.925Z,98972.00
2022-12-25T18:35:58.117Z,98967.00
2022-12-25T18:38:39.816Z,98970.00
2022-12-25T18:41:32.062Z,98971.00
2022-12-25T18:44:16.933Z,98962.00
2022-12-25T18:47:04.569Z,98972.00
2022-12-25T18:49:45.441Z,98968.00
2022-12-25T18:52:47.851Z,98962.00
2022-12-25T18:55:36.087Z,98959.00
2022-12-25T18:58:03.901Z,98965.00
2022-12-25T19:01:08.550Z,98975.00
2022-12-25T19:03:37.769Z,98969.00
2022-12-25T19:06:20.530Z,98973.00
2022-12-25T19:09:08.949Z,98969.00
2022-12-25T19:12:01.487Z,98965.00
2022-12-25T19:14:47.310Z,98978.00
2022-12-25T19:17:56.949Z,98982.00
2022-12-25T19:20:53.881Z,98990.00
2022-12-25T19:23:50.371Z,98981.00
2022-12-25T19:29:57.346Z,98976.00
2022-12-25T19:32:35.379Z,98964.00
2022-12-25T19:35:20.196Z,98955.00
2022-12-25T19:37:59.413Z,98954.00
2022-12-25T19:42:06.940Z,98968.00
2022-12-25T19:48:07.843Z,98966.00
2022-12-25T19:50:56.810Z,98955.00
2022-12-25T19:53:56.760Z,98956.00
2022-12-25T20:00:13.509Z,98965.00
2022-12-25T20:05:53.648Z,98964.00
2022-12-25T20:08:43.167Z,98967.00
2022-12-25T20:11:38.738Z,98968.00
2022-12-25T20:14:32.984Z,98968.00
2022-12-25T20:17:26.292Z,98988.00
2022-12-25T20:20:27.415Z,98984.00
2022-12-25T20:23:09.567Z,98984.00
2022-12-25T20:29:08.580Z,98997.00
2022-12-25T20:31:54.879Z,98991.00
2022-12-25T20:34:36.583Z,98993.00
2022-12-25T20:38:13.654Z,98999.00
2022-12-25T20:41:25.579Z,98992.00
2022-12-25T20:44:01.670Z,98994.00
2022-12-25T20:49:55.632Z,99018.00
2022-12-25T20:52:51.135Z,99015.00
2022-12-25T20:55:35.857Z,99009.00
2022-12-25T20:58:37.913Z,99003.00
2022-12-25T21:01:28.328Z,99016.00
2022-12-25T21:07:06.026Z,99009.00
2022-12-25T21:09:41.434Z,99004.00
2022-12-25T21:12:25.490Z,99012.00
2022-12-25T21:15:13.346Z,99001.00
2022-12-25T21:18:25.090Z,99007.00
2022-12-25T21:20:54.229Z,99005.00
2022-12-25T21:23:47.910Z,99009.00
2022-12-25T21:26:47.979Z,99006.00
2022-12-25T21:30:15.116Z,99016.00
2022-12-25T21:33:18.297Z,99021.00
2022-12-25T21:35:57.406Z,99024.00
2022-12-25T21:38:40.321Z,99022.00
2022-12-25T21:44:13.534Z,99027.00
2022-12-25T21:50:38.907Z,99028.00
2022-12-25T21:53:06.631Z,99026.00
2022-12-25T21:55:36.295Z,99036.00
2022-12-25T21:58:03.107Z,99047.00
2022-12-25T22:00:29.912Z,99036.00
2022-12-25T22:02:57.521Z,99051.00
2022-12-25T22:05:42.995Z,99056.00
2022-12-25T22:11:29.601Z,99054.00
2022-12-25T22:14:57.386Z,99043.00
2022-12-25T22:18:07.689Z,99061.00
2022-12-25T22:36:28.195Z,99080.00
2022-12-25T22:39:11.412Z,99059.00
2022-12-25T22:41:54.522Z,99063.00
2022-12-25T22:44:48.987Z,99056.00
2022-12-25T22:47:33.746Z,99069.00
2022-12-25T22:53:41.799Z,99064.00
2022-12-25T22:56:24.203Z,99077.00
2022-12-25T22:59:06.758Z,99082.00
2022-12-25T23:02:10.183Z,99090.00
2022-12-25T23:07:57.913Z,99101.00
2022-12-25T23:10:29.324Z,99091.00
2022-12-25T23:13:51.904Z,99096.00
2022-12-25T23:16:55.247Z,99092.00
2022-12-25T23:24:15.639Z,99096.00
2022-12-25T23:27:19.245Z,99111.00
2022-12-25T23:36:04.996Z,99123.00
2022-12-25T23:38:45.962Z,99114.00
2022-12-25T23:45:06.069Z,99112.00
2022-12-25T23:53:32.641Z,99113.00
2022-12-25T23:56:18.150Z,99117.00
2022-12-25T23:59:05.824Z,99101.00
